Wiconisco, Pennsylvania
Current Conditions -  °F | °C
As of 3:58 PM on Thursday 20 Nov 2014 (Local Time) from KMUI Reporting Station
Clear Clear  
Wind Chill: 31°   Ceiling: Unl
Heat Index: 38°   Visibility: 10mi
Dew Point: 15°   Wind: 12mph
Humidity: 39%   Direction: 290°WNW
Pressure: 29.91"   Gusts: NA
Location:  40.57°N, 76.69°W
Report Text: KMUI 202058Z AUTO 29010KT 10SM CLR 04/M09 A2991 RMK AO2 SLP136 T00351095 53008 $
Loading
Personal Weather Stations






























Interactive Weather Map New forecast layout! Learn more

10-Day Weather Forecast

Advertisements
Track Severe Weather on mobile